createdAt,value
2023-02-07T00:03:06.298Z,5.60
2023-02-07T00:08:28.056Z,5.95
2023-02-07T00:13:52.749Z,4.53
2023-02-07T00:19:15.456Z,6.10
2023-02-07T00:24:37.143Z,4.45
2023-02-07T00:29:58.859Z,6.15
2023-02-07T00:35:20.578Z,4.13
2023-02-07T00:40:42.353Z,3.25
2023-02-07T00:46:05.719Z,5.15
2023-02-07T00:51:27.702Z,4.10
2023-02-07T00:56:49.427Z,5.18
2023-02-07T01:02:11.241Z,5.30
2023-02-07T01:07:34.228Z,4.70
2023-02-07T01:12:56.056Z,2.97
2023-02-07T01:18:17.877Z,3.65
2023-02-07T01:23:39.852Z,3.30
2023-02-07T01:29:02.647Z,4.72
2023-02-07T01:34:24.337Z,3.47
2023-02-07T01:39:47.524Z,4.45
2023-02-07T01:45:40.466Z,5.20
2023-02-07T01:51:06.189Z,3.40
2023-02-07T02:01:55.433Z,3.37
2023-02-07T02:07:17.499Z,3.22
2023-02-07T02:12:55.775Z,3.72
2023-02-07T02:18:39.118Z,3.33
2023-02-07T02:24:19.314Z,4.53
2023-02-07T02:30:00.171Z,3.10
2023-02-07T02:35:40.672Z,2.90
2023-02-07T02:41:37.034Z,4.20
2023-02-07T02:47:03.439Z,3.53
2023-02-07T02:52:40.726Z,5.03
2023-02-07T02:58:27.778Z,3.63
2023-02-07T03:03:55.330Z,5.55
2023-02-07T03:09:38.341Z,2.08
2023-02-07T03:15:07.550Z,3.47
2023-02-07T03:20:35.218Z,3.08
2023-02-07T03:26:01.330Z,4.15
2023-02-07T03:31:25.871Z,2.80
2023-02-07T03:36:57.661Z,4.35
2023-02-07T03:42:31.369Z,3.20
2023-02-07T03:47:53.080Z,4.78
2023-02-07T03:53:14.798Z,3.28
2023-02-07T03:58:36.477Z,2.35
2023-02-07T04:03:58.204Z,3.83
2023-02-07T04:09:19.926Z,3.67
2023-02-07T04:14:41.597Z,3.72
2023-02-07T04:20:05.555Z,4.07
2023-02-07T04:25:27.384Z,2.28
2023-02-07T04:30:49.107Z,3.15
2023-02-07T04:36:11.002Z,3.70
2023-02-07T04:41:33.007Z,2.80
2023-02-07T04:46:54.761Z,3.78
2023-02-07T04:52:16.434Z,3.15
2023-02-07T04:57:38.107Z,4.55
2023-02-07T05:03:00.958Z,2.95
2023-02-07T05:08:25.298Z,3.60
2023-02-07T05:13:47.868Z,2.95
2023-02-07T05:19:09.675Z,3.92
2023-02-07T05:24:31.483Z,3.22
2023-02-07T05:29:53.259Z,4.28
2023-02-07T05:35:15.144Z,3.22
2023-02-07T05:40:38.315Z,3.38
2023-02-07T05:46:00.041Z,3.53
2023-02-07T05:51:21.816Z,3.35
2023-02-07T05:56:43.536Z,3.33
2023-02-07T06:02:05.475Z,1.88
2023-02-07T06:07:27.253Z,2.35
2023-02-07T06:12:48.986Z,2.42
2023-02-07T06:18:10.746Z,3.05
2023-02-07T06:23:32.438Z,2.97
2023-02-07T06:28:54.200Z,4.07
2023-02-07T06:34:15.994Z,3.47
2023-02-07T06:39:37.806Z,3.63
2023-02-07T06:44:59.644Z,2.47
2023-02-07T06:50:21.377Z,3.00
2023-02-07T06:55:43.310Z,6.20
2023-02-07T07:01:05.594Z,2.50
2023-02-07T07:06:27.352Z,8.18
2023-02-07T07:11:49.646Z,8.00
2023-02-07T07:17:11.318Z,4.72
2023-02-07T07:22:33.616Z,6.50
2023-02-07T07:27:55.401Z,6.97
2023-02-07T07:33:17.085Z,4.05
2023-02-07T07:38:38.973Z,4.18
2023-02-07T07:44:00.772Z,4.97
2023-02-07T07:49:22.514Z,3.33
2023-02-07T07:54:44.251Z,3.45
2023-02-07T08:00:06.591Z,3.67
2023-02-07T08:05:28.292Z,4.70
2023-02-07T08:10:50.347Z,3.88
2023-02-07T08:16:12.195Z,2.70
2023-02-07T08:21:33.960Z,3.13
2023-02-07T08:26:55.917Z,2.95
2023-02-07T08:32:17.657Z,3.03
2023-02-07T08:37:39.721Z,4.65
2023-02-07T08:43:01.425Z,2.90
2023-02-07T08:48:23.215Z,2.22
2023-02-07T08:53:44.933Z,2.55
2023-02-07T08:59:06.764Z,3.05
2023-02-07T09:04:28.620Z,2.83
2023-02-07T09:09:50.415Z,1.80
2023-02-07T09:15:12.215Z,3.33
2023-02-07T09:20:33.945Z,2.95
2023-02-07T09:26:01.415Z,2.35
2023-02-07T09:31:24.801Z,1.83
2023-02-07T09:36:46.600Z,2.00
2023-02-07T09:42:45.393Z,1.73
2023-02-07T09:48:16.906Z,3.45
2023-02-07T09:53:45.291Z,3.90
2023-02-07T09:59:16.879Z,2.58
2023-02-07T10:04:44.169Z,3.65
2023-02-07T10:10:18.201Z,2.88
2023-02-07T10:16:12.018Z,3.78
2023-02-07T10:21:52.105Z,3.92
2023-02-07T10:27:21.792Z,3.72
2023-02-07T10:32:47.047Z,3.70
2023-02-07T10:38:38.174Z,2.35
2023-02-07T10:43:59.924Z,2.53
2023-02-07T10:49:26.067Z,7.45
2023-02-07T10:54:54.560Z,5.22
2023-02-07T11:00:30.510Z,3.03
2023-02-07T11:05:56.942Z,4.22
2023-02-07T11:11:37.034Z,2.78
2023-02-07T11:17:01.536Z,3.05
2023-02-07T11:22:25.355Z,1.95
2023-02-07T11:27:47.191Z,2.88
2023-02-07T11:33:19.509Z,2.75
2023-02-07T11:38:50.533Z,3.35
2023-02-07T11:44:17.524Z,1.45
2023-02-07T11:49:39.249Z,2.33
2023-02-07T11:55:07.375Z,2.30
2023-02-07T12:00:30.599Z,3.00
2023-02-07T12:05:59.244Z,3.67
2023-02-07T12:11:34.261Z,2.63
2023-02-07T12:17:00.741Z,1.30
2023-02-07T12:22:29.335Z,2.60
2023-02-07T12:27:56.912Z,0.90
2023-02-07T12:33:42.370Z,1.60
2023-02-07T12:39:12.671Z,1.42
2023-02-07T12:44:52.315Z,1.70
2023-02-07T12:50:21.989Z,3.03
2023-02-07T12:56:28.484Z,0.90
2023-02-07T13:02:16.988Z,1.35
2023-02-07T13:07:57.526Z,1.08
2023-02-07T13:13:25.050Z,0.93
2023-02-07T13:19:02.776Z,1.92
2023-02-07T13:24:27.486Z,1.90
2023-02-07T13:29:51.704Z,1.03
2023-02-07T13:35:23.662Z,1.75
2023-02-07T13:41:04.058Z,1.00
2023-02-07T13:46:32.005Z,1.25
2023-02-07T13:52:11.801Z,1.27
2023-02-07T13:57:51.983Z,1.17
2023-02-07T14:03:22.845Z,1.05
2023-02-07T14:08:45.402Z,1.20
2023-02-07T14:14:14.520Z,1.20
2023-02-07T14:19:43.281Z,0.75
2023-02-07T14:25:07.698Z,1.38
2023-02-07T14:30:54.184Z,1.45
2023-02-07T14:36:18.871Z,1.50
2023-02-07T14:41:43.210Z,1.48
2023-02-07T14:47:08.569Z,3.60
2023-02-07T14:52:34.090Z,1.98
2023-02-07T14:58:03.889Z,2.25
2023-02-07T15:03:30.779Z,0.80
2023-02-07T15:09:20.701Z,0.98
2023-02-07T15:14:42.516Z,0.70
2023-02-07T15:20:04.705Z,5.13
2023-02-07T15:25:28.112Z,1.20
2023-02-07T15:31:04.976Z,1.73
2023-02-07T15:36:36.847Z,1.25
2023-02-07T15:41:58.836Z,0.65
2023-02-07T15:47:29.497Z,1.10
2023-02-07T15:52:54.563Z,0.50
2023-02-07T15:58:33.356Z,0.77
2023-02-07T16:03:57.738Z,1.20
2023-02-07T16:09:43.423Z,0.75
2023-02-07T16:15:22.544Z,1.00
2023-02-07T16:20:44.337Z,0.68
2023-02-07T16:26:06.126Z,0.68
2023-02-07T16:31:28.322Z,1.88
2023-02-07T16:36:53.701Z,0.85
2023-02-07T16:42:17.185Z,4.75
2023-02-07T16:47:38.866Z,2.45
2023-02-07T16:53:00.674Z,2.65
2023-02-07T16:58:27.320Z,1.35
2023-02-07T17:03:49.371Z,6.53
2023-02-07T17:09:23.199Z,7.90
2023-02-07T17:14:44.876Z,3.88
2023-02-07T17:20:20.445Z,2.22
2023-02-07T17:25:43.820Z,2.43
2023-02-07T17:31:05.613Z,2.25
2023-02-07T17:36:29.148Z,4.47
2023-02-07T17:41:50.908Z,3.85
2023-02-07T17:47:12.804Z,6.78
2023-02-07T17:52:35.151Z,3.65
2023-02-07T17:57:57.016Z,2.10
2023-02-07T18:03:20.479Z,15.80
2023-02-07T18:08:43.046Z,15.68
2023-02-07T18:14:04.985Z,19.92
2023-02-07T18:19:26.819Z,5.97
2023-02-07T18:24:48.520Z,4.75
2023-02-07T18:30:11.841Z,5.10
2023-02-07T18:35:34.051Z,4.93
2023-02-07T18:40:55.780Z,7.68
2023-02-07T18:46:20.243Z,9.57
2023-02-07T18:51:42.056Z,12.57
2023-02-07T18:57:03.853Z,14.98
2023-02-07T19:02:25.905Z,11.20
2023-02-07T19:07:47.693Z,13.38
2023-02-07T19:13:09.505Z,14.07
2023-02-07T19:18:31.424Z,14.95
2023-02-07T19:23:54.798Z,19.05
2023-02-07T19:29:20.490Z,17.73
2023-02-07T19:34:42.790Z,28.02
2023-02-07T19:40:04.801Z,11.98
2023-02-07T19:45:27.308Z,14.88
2023-02-07T19:51:00.625Z,19.73
2023-02-07T19:56:24.604Z,10.43
2023-02-07T20:01:46.578Z,15.40
2023-02-07T20:07:08.282Z,11.57
2023-02-07T20:12:29.996Z,13.50
2023-02-07T20:17:52.009Z,17.40
2023-02-07T20:23:14.127Z,10.80
2023-02-07T20:28:38.450Z,26.98
2023-02-07T20:34:02.254Z,8.50
2023-02-07T20:39:24.120Z,15.20
2023-02-07T20:44:45.908Z,9.45
2023-02-07T20:50:08.027Z,5.65
2023-02-07T20:55:30.000Z,7.18
2023-02-07T21:00:51.720Z,10.35
2023-02-07T21:06:13.655Z,16.05
2023-02-07T21:11:44.876Z,12.25
2023-02-07T21:17:06.715Z,11.52
2023-02-07T21:22:28.703Z,12.00
2023-02-07T21:27:50.401Z,9.95
2023-02-07T21:33:12.886Z,8.55
2023-02-07T21:38:35.397Z,8.02
2023-02-07T21:43:59.079Z,8.30
2023-02-07T21:49:21.086Z,5.78
2023-02-07T21:54:42.835Z,6.35
2023-02-07T22:00:08.204Z,4.93
2023-02-07T22:05:29.924Z,6.38
2023-02-07T22:10:51.666Z,5.13
2023-02-07T22:16:15.094Z,6.43
2023-02-07T22:21:37.943Z,4.60
2023-02-07T22:26:59.869Z,4.45
2023-02-07T22:32:21.594Z,4.05
2023-02-07T22:37:43.290Z,3.33
2023-02-07T22:43:12.428Z,4.00
2023-02-07T22:48:34.582Z,5.38
2023-02-07T22:53:59.111Z,4.95
2023-02-07T22:59:20.840Z,4.13
2023-02-07T23:04:42.547Z,3.15
2023-02-07T23:10:07.011Z,4.30
2023-02-07T23:15:29.012Z,4.15
2023-02-07T23:20:51.056Z,3.20
2023-02-07T23:26:15.790Z,3.60
2023-02-07T23:31:37.566Z,2.20
2023-02-07T23:36:59.271Z,3.53
2023-02-07T23:42:21.262Z,2.50
2023-02-07T23:47:43.162Z,2.13
2023-02-07T23:53:04.904Z,3.25
2023-02-07T23:58:27.572Z,2.80
